createdAt,value
2022-11-05T00:00:20.343Z,48.00
2022-11-05T00:06:04.433Z,45.70
2022-11-05T00:11:17.913Z,41.20
2022-11-05T00:16:42.977Z,40.60
2022-11-05T00:22:07.392Z,34.70
2022-11-05T00:27:14.211Z,29.90
2022-11-05T00:32:21.298Z,31.90
2022-11-05T00:37:29.503Z,34.60
2022-11-05T00:42:54.022Z,34.80
2022-11-05T00:48:18.651Z,38.20
2022-11-05T00:53:25.677Z,34.70
2022-11-05T00:58:32.370Z,40.30
2022-11-05T01:03:41.194Z,29.30
2022-11-05T01:08:48.688Z,27.90
2022-11-05T01:13:55.722Z,29.00
2022-11-05T01:19:03.904Z,24.50
2022-11-05T01:24:13.070Z,25.20
2022-11-05T01:29:19.988Z,22.60
2022-11-05T01:34:26.794Z,19.60
2022-11-05T01:39:33.677Z,15.80
2022-11-05T01:45:02.684Z,9.30
2022-11-05T01:50:38.098Z,3.60
2022-11-05T01:55:49.089Z,2.00
2022-11-05T02:00:58.018Z,1.80
2022-11-05T02:06:09.549Z,1.90
2022-11-05T02:11:18.305Z,2.40
2022-11-05T02:16:37.442Z,4.00
2022-11-05T02:22:22.999Z,4.00
2022-11-05T02:27:52.076Z,3.20
2022-11-05T02:33:07.882Z,3.90
2022-11-05T02:38:25.468Z,4.50
2022-11-05T02:43:44.493Z,4.40
2022-11-05T02:48:58.077Z,3.90
2022-11-05T02:54:15.315Z,4.00
2022-11-05T02:59:22.410Z,3.30
2022-11-05T03:04:30.117Z,4.20
2022-11-05T03:10:07.110Z,2.70
2022-11-05T03:15:21.467Z,3.70
2022-11-05T03:20:35.943Z,3.20
2022-11-05T03:25:47.952Z,3.10
2022-11-05T03:30:58.874Z,3.20
2022-11-05T03:36:16.222Z,3.20
2022-11-05T03:41:25.122Z,3.20
2022-11-05T03:46:34.744Z,2.80
2022-11-05T03:51:49.827Z,2.40
2022-11-05T03:57:04.974Z,2.80
2022-11-05T04:02:13.471Z,2.90
2022-11-05T04:07:38.576Z,2.20
2022-11-05T04:13:03.434Z,2.50
2022-11-05T04:18:10.529Z,2.50
2022-11-05T04:23:36.481Z,2.80
2022-11-05T04:29:06.726Z,2.90
2022-11-05T04:34:14.686Z,3.40
2022-11-05T04:39:22.565Z,3.60
2022-11-05T04:44:29.308Z,3.50
2022-11-05T04:49:36.135Z,4.40
2022-11-05T04:54:43.056Z,3.90
2022-11-05T04:59:52.390Z,3.00
2022-11-05T05:04:59.230Z,3.70
2022-11-05T05:10:08.231Z,4.10
2022-11-05T05:15:15.500Z,4.10
2022-11-05T05:20:43.239Z,3.80
2022-11-05T05:25:50.171Z,4.10
2022-11-05T05:31:01.886Z,5.00
2022-11-05T05:36:11.600Z,4.00
2022-11-05T05:41:19.040Z,4.60
2022-11-05T05:46:26.463Z,4.80
2022-11-05T05:51:33.463Z,4.80
2022-11-05T05:56:40.288Z,4.80
2022-11-05T06:01:47.372Z,5.90
2022-11-05T06:06:55.014Z,5.20
2022-11-05T06:12:03.210Z,6.10
2022-11-05T06:17:10.774Z,6.80
2022-11-05T06:22:17.887Z,6.90
2022-11-05T06:27:24.765Z,6.50
2022-11-05T06:32:31.949Z,6.70
2022-11-05T06:37:38.930Z,7.90
2022-11-05T06:42:52.685Z,9.20
2022-11-05T06:48:00.953Z,8.50
2022-11-05T06:53:07.815Z,8.10
2022-11-05T06:58:15.452Z,7.90
2022-11-05T07:03:22.359Z,8.50
2022-11-05T07:08:31.597Z,7.40
2022-11-05T07:13:39.117Z,7.70
2022-11-05T07:18:47.645Z,7.10
2022-11-05T07:23:54.608Z,6.70
2022-11-05T07:29:01.757Z,7.10
2022-11-05T07:34:09.413Z,7.10
2022-11-05T07:39:16.246Z,7.50
2022-11-05T07:44:23.276Z,7.90
2022-11-05T07:49:30.523Z,7.50
2022-11-05T07:54:38.183Z,8.80
2022-11-05T07:59:45.189Z,7.60
2022-11-05T08:04:52.080Z,7.00
2022-11-05T08:09:58.976Z,7.00
2022-11-05T08:15:06.372Z,7.40
2022-11-05T08:20:15.088Z,7.00
2022-11-05T08:25:22.632Z,5.90
2022-11-05T08:30:30.482Z,4.50
2022-11-05T08:35:39.266Z,4.80
2022-11-05T08:40:54.174Z,4.30
2022-11-05T08:46:02.617Z,4.50
2022-11-05T08:51:09.631Z,3.90
2022-11-05T08:56:17.506Z,4.00
2022-11-05T09:01:24.649Z,3.60
2022-11-05T09:06:32.008Z,4.00
2022-11-05T09:12:05.734Z,4.20
2022-11-05T09:17:06.028Z,4.00
2022-11-05T09:22:13.585Z,2.90
2022-11-05T09:27:29.021Z,3.50
2022-11-05T09:32:46.550Z,3.70
2022-11-05T09:37:56.852Z,3.00
2022-11-05T09:43:09.456Z,2.90
2022-11-05T09:48:21.511Z,3.50
2022-11-05T09:53:28.910Z,3.00
2022-11-05T09:58:43.710Z,3.00
2022-11-05T10:03:56.942Z,3.50
2022-11-05T10:09:10.033Z,3.30
2022-11-05T10:14:22.100Z,2.70
2022-11-05T10:19:36.691Z,2.50
2022-11-05T10:24:48.578Z,2.60
2022-11-05T10:29:55.756Z,3.60
2022-11-05T10:35:06.384Z,2.90
2022-11-05T10:40:23.605Z,3.10
2022-11-05T10:45:37.996Z,3.20
2022-11-05T10:50:47.106Z,3.10
2022-11-05T10:55:55.084Z,3.00
2022-11-05T11:01:09.198Z,3.90
2022-11-05T11:06:27.318Z,4.40
2022-11-05T11:11:38.064Z,4.20
2022-11-05T11:16:47.387Z,3.60
2022-11-05T11:22:17.971Z,4.10
2022-11-05T11:27:28.196Z,3.40
2022-11-05T11:32:40.070Z,4.40
2022-11-05T11:37:47.456Z,3.80
2022-11-05T11:43:01.030Z,3.50
2022-11-05T11:48:15.522Z,3.10
2022-11-05T11:53:35.288Z,4.20
2022-11-05T11:58:45.894Z,3.10
2022-11-05T12:03:56.378Z,3.30
2022-11-05T12:09:13.424Z,3.90
2022-11-05T12:14:30.713Z,3.80
2022-11-05T12:26:46.731Z,3.80
2022-11-05T12:32:04.321Z,3.20
2022-11-05T12:37:30.894Z,3.90
2022-11-05T12:42:54.250Z,3.30
2022-11-05T12:48:14.100Z,3.40
2022-11-05T12:53:38.472Z,3.60
2022-11-05T12:58:49.894Z,3.20
2022-11-05T13:04:06.988Z,3.20
2022-11-05T13:09:20.145Z,3.10
2022-11-05T13:14:32.196Z,3.80
2022-11-05T13:19:59.801Z,4.00
2022-11-05T13:25:13.980Z,3.10
2022-11-05T13:30:23.658Z,3.00
2022-11-05T13:35:34.065Z,2.90
2022-11-05T13:40:52.942Z,3.40
2022-11-05T13:46:19.721Z,3.80
2022-11-05T13:51:47.582Z,3.50
2022-11-05T13:57:12.389Z,3.90
2022-11-05T14:02:22.835Z,3.00
2022-11-05T14:07:32.322Z,2.80
2022-11-05T14:12:41.730Z,2.60
2022-11-05T14:18:00.874Z,3.30
2022-11-05T14:23:46.971Z,3.70
2022-11-05T14:29:24.134Z,3.60
2022-11-05T14:34:56.227Z,2.60
2022-11-05T14:40:37.501Z,3.30
2022-11-05T14:45:55.447Z,4.10
2022-11-05T14:51:03.772Z,3.70
2022-11-05T14:56:14.654Z,5.00
2022-11-05T15:01:55.760Z,3.20
2022-11-05T15:07:34.864Z,3.80
2022-11-05T15:12:46.242Z,4.70
2022-11-05T15:18:02.932Z,3.90
2022-11-05T15:23:17.336Z,3.90
2022-11-05T15:28:32.183Z,4.40
2022-11-05T15:33:39.213Z,3.60
2022-11-05T15:39:08.202Z,3.90
2022-11-05T15:44:27.052Z,4.90
2022-11-05T15:49:34.361Z,5.10
2022-11-05T15:54:41.530Z,7.30
2022-11-05T15:59:50.069Z,10.10
2022-11-05T16:04:58.483Z,10.50
2022-11-05T16:10:09.968Z,8.10
2022-11-05T16:15:32.343Z,10.00
2022-11-05T16:20:42.656Z,13.50
2022-11-05T16:25:49.450Z,16.90
2022-11-05T16:30:58.463Z,24.60
2022-11-05T16:36:06.702Z,25.90
2022-11-05T16:41:18.137Z,30.30
2022-11-05T16:46:26.778Z,28.50
2022-11-05T16:51:33.930Z,31.50
2022-11-05T16:56:42.850Z,39.00
2022-11-05T17:01:55.520Z,31.60
2022-11-05T17:07:03.137Z,26.90
2022-11-05T17:12:10.296Z,27.60
2022-11-05T17:17:17.236Z,24.60
2022-11-05T17:22:24.202Z,26.00
2022-11-05T17:27:31.152Z,34.60
2022-11-05T17:32:39.274Z,34.90
2022-11-05T17:37:46.832Z,32.60
2022-11-05T17:42:54.492Z,25.40
2022-11-05T17:48:03.426Z,25.90
2022-11-05T17:53:18.324Z,20.70
2022-11-05T17:58:28.164Z,19.60
2022-11-05T18:03:38.125Z,16.90
2022-11-05T18:08:45.651Z,22.90
2022-11-05T18:13:52.571Z,29.10
2022-11-05T18:19:00.026Z,25.30
2022-11-05T18:24:08.651Z,32.80
2022-11-05T18:29:15.972Z,28.60
2022-11-05T18:34:22.902Z,24.00
2022-11-05T18:39:31.265Z,26.20
2022-11-05T18:44:39.563Z,25.60
2022-11-05T18:49:46.669Z,26.10
2022-11-05T18:54:56.399Z,26.70
2022-11-05T19:00:05.237Z,29.20
2022-11-05T19:05:29.776Z,28.20
2022-11-05T19:10:40.466Z,25.10
2022-11-05T19:15:47.947Z,26.70
2022-11-05T19:20:55.306Z,27.10
2022-11-05T19:26:06.880Z,25.10
2022-11-05T19:31:16.818Z,28.20
2022-11-05T19:36:25.983Z,33.90
2022-11-05T19:41:33.319Z,34.30
2022-11-05T19:46:40.284Z,29.40
2022-11-05T19:51:49.028Z,29.80
2022-11-05T19:56:56.000Z,33.50
2022-11-05T20:02:03.321Z,47.60
2022-11-05T20:07:10.511Z,54.50
2022-11-05T20:12:17.415Z,51.00
2022-11-05T20:17:24.397Z,39.40
2022-11-05T20:22:31.323Z,39.20
2022-11-05T20:27:38.337Z,39.90
2022-11-05T20:32:45.658Z,39.00
2022-11-05T20:37:54.214Z,32.30
2022-11-05T20:43:01.765Z,29.10
2022-11-05T20:48:09.337Z,29.90
2022-11-05T20:53:18.188Z,27.50
2022-11-05T20:58:25.199Z,34.50
2022-11-05T21:03:32.674Z,32.10
2022-11-05T21:08:41.012Z,29.00
2022-11-05T21:13:48.447Z,38.80
2022-11-05T21:18:55.268Z,41.80
2022-11-05T21:24:02.130Z,68.40
2022-11-05T21:29:09.149Z,63.90
2022-11-05T21:34:16.104Z,57.10
2022-11-05T21:39:23.773Z,68.50
2022-11-05T21:44:30.868Z,51.50
2022-11-05T21:49:38.231Z,51.80
2022-11-05T21:55:02.897Z,42.20
2022-11-05T22:00:12.433Z,42.60
2022-11-05T22:05:19.579Z,36.80
2022-11-05T22:10:26.669Z,37.50
2022-11-05T22:15:33.987Z,34.00
2022-11-05T22:20:41.475Z,31.80
2022-11-05T22:25:48.325Z,34.10
2022-11-05T22:30:55.451Z,32.60
2022-11-05T22:36:04.398Z,34.60
2022-11-05T22:41:12.917Z,33.80
2022-11-05T22:46:21.533Z,42.00
2022-11-05T22:51:30.829Z,39.40
2022-11-05T22:56:41.733Z,44.00
2022-11-05T23:01:49.523Z,43.00
2022-11-05T23:07:14.510Z,42.60
2022-11-05T23:12:29.483Z,41.60
2022-11-05T23:17:54.280Z,36.30
2022-11-05T23:23:20.250Z,37.20
2022-11-05T23:28:28.136Z,42.70
2022-11-05T23:33:37.175Z,41.40
2022-11-05T23:38:43.994Z,38.40
2022-11-05T23:44:08.665Z,38.50
2022-11-05T23:49:15.597Z,41.90
2022-11-05T23:54:23.097Z,37.30
2022-11-05T23:59:29.902Z,33.30
